createdAt,value
2023-04-29T00:00:13.879Z,100647.41
2023-04-29T00:01:10.853Z,100647.41
2023-04-29T00:02:11.164Z,100647.97
2023-04-29T00:03:11.937Z,100647.54
2023-04-29T00:04:12.538Z,100647.28
2023-04-29T00:05:13.551Z,100646.86
2023-04-29T00:06:14.224Z,100647.11
2023-04-29T00:07:14.039Z,100646.60
2023-04-29T00:08:14.178Z,100645.83
2023-04-29T00:09:14.457Z,100645.49
2023-04-29T00:10:15.261Z,100644.98
2023-04-29T00:11:15.426Z,100644.53
2023-04-29T00:12:16.312Z,100643.52
2023-04-29T00:12:29.303Z,100643.17
2023-04-29T00:13:29.375Z,100642.83
2023-04-29T00:14:30.389Z,100642.50
2023-04-29T00:15:30.423Z,100642.45
2023-04-29T00:16:31.257Z,100642.28
2023-04-29T00:17:31.722Z,100641.86
2023-04-29T00:18:32.437Z,100641.61
2023-04-29T00:19:32.595Z,100641.27
2023-04-29T00:20:33.330Z,100640.64
2023-04-29T00:21:33.678Z,100639.71
2023-04-29T00:22:35.572Z,100639.05
2023-04-29T00:22:46.156Z,100638.92
2023-04-29T00:23:43.628Z,100638.88
2023-04-29T00:24:44.330Z,100638.38
2023-04-29T00:25:45.014Z,100637.92
2023-04-29T00:26:46.855Z,100637.13
2023-04-29T00:27:46.712Z,100636.23
2023-04-29T00:28:47.597Z,100635.28
2023-04-29T00:29:48.102Z,100634.14
2023-04-29T00:30:48.809Z,100633.09
2023-04-29T00:31:48.831Z,100632.17
2023-04-29T00:32:49.402Z,100631.29
2023-04-29T00:33:49.894Z,100630.50
2023-04-29T00:34:01.377Z,100629.45
2023-04-29T00:35:01.556Z,100628.98
2023-04-29T00:36:02.292Z,100627.80
2023-04-29T00:37:02.274Z,100626.87
2023-04-29T00:38:02.814Z,100625.91
2023-04-29T00:39:04.745Z,100625.40
2023-04-29T00:40:04.770Z,100624.55
2023-04-29T00:41:04.666Z,100624.21
2023-04-29T00:42:04.745Z,100623.61
2023-04-29T00:43:05.372Z,100622.81
2023-04-29T00:44:05.814Z,100622.05
2023-04-29T00:45:08.096Z,100622.25
2023-04-29T00:45:18.297Z,100621.81
2023-04-29T00:46:18.844Z,100621.69
2023-04-29T00:47:18.977Z,100621.72
2023-04-29T00:48:19.715Z,100621.84
2023-04-29T00:49:19.921Z,100622.01
2023-04-29T00:50:20.062Z,100622.21
2023-04-29T00:51:20.216Z,100622.38
2023-04-29T00:52:21.092Z,100622.67
2023-04-29T00:53:21.804Z,100622.63
2023-04-29T00:54:22.533Z,100622.86
2023-04-29T00:55:23.447Z,100623.33
2023-04-29T00:56:24.244Z,100623.23
2023-04-29T00:56:36.200Z,100623.87
2023-04-29T00:57:36.100Z,100623.95
2023-04-29T00:58:37.029Z,100623.94
2023-04-29T00:59:37.905Z,100624.23
2023-04-29T01:00:38.076Z,100623.98
2023-04-29T01:01:38.811Z,100624.27
2023-04-29T01:02:39.686Z,100624.77
2023-04-29T01:03:40.168Z,100624.98
2023-04-29T01:04:40.248Z,100624.98
2023-04-29T01:05:41.058Z,100625.27
2023-04-29T01:06:41.180Z,100625.52
2023-04-29T01:07:41.995Z,100626.23
2023-04-29T01:08:42.230Z,100626.69
2023-04-29T01:09:43.065Z,100627.74
2023-04-29T01:09:52.431Z,100628.16
2023-04-29T01:10:53.127Z,100629.03
2023-04-29T01:11:53.907Z,100629.87
2023-04-29T01:12:54.266Z,100630.86
2023-04-29T01:13:55.188Z,100632.12
2023-04-29T01:14:56.398Z,100633.22
2023-04-29T01:15:56.255Z,100633.89
2023-04-29T01:16:57.198Z,100635.47
2023-04-29T01:17:58.056Z,100637.11
2023-04-29T01:18:58.213Z,100639.19
2023-04-29T01:19:58.957Z,100640.55
2023-04-29T01:20:59.262Z,100643.08
2023-04-29T01:21:08.536Z,100628.88
2023-04-29T01:22:09.200Z,100631.97
2023-04-29T01:23:10.158Z,100634.38
2023-04-29T01:24:10.244Z,100637.15
2023-04-29T01:25:11.047Z,100639.55
2023-04-29T01:26:11.859Z,100641.72
2023-04-29T01:27:11.897Z,100643.48
2023-04-29T01:28:12.713Z,100645.52
2023-04-29T01:29:13.114Z,100647.97
2023-04-29T01:30:13.153Z,100649.71
2023-04-29T01:31:13.997Z,100651.66
2023-04-29T01:32:14.917Z,100653.09
2023-04-29T01:33:16.832Z,100655.04
2023-04-29T01:34:16.779Z,100656.31
2023-04-29T01:35:17.225Z,100658.35
2023-04-29T01:36:18.065Z,100660.21
2023-04-29T01:36:27.689Z,100646.38
2023-04-29T01:37:29.464Z,100649.55
2023-04-29T01:38:29.160Z,100651.78
2023-04-29T01:39:29.585Z,100653.92
2023-04-29T01:40:30.271Z,100655.83
2023-04-29T01:41:30.407Z,100658.11
2023-04-29T01:42:30.568Z,100660.39
2023-04-29T01:43:30.627Z,100662.89
2023-04-29T01:44:30.737Z,100665.17
2023-04-29T01:45:31.552Z,100667.45
2023-04-29T01:46:32.153Z,100669.69
2023-04-29T01:46:42.544Z,100655.81
2023-04-29T01:47:44.189Z,100659.13
2023-04-29T01:48:43.994Z,100662.26
2023-04-29T01:49:44.643Z,100666.47
2023-04-29T01:50:45.295Z,100669.94
2023-04-29T01:51:45.121Z,100674.02
2023-04-29T01:52:45.182Z,100678.41
2023-04-29T01:53:46.022Z,100682.62
2023-04-29T01:54:46.889Z,100687.26
2023-04-29T01:55:47.619Z,100691.66
2023-04-29T01:56:49.381Z,100696.51
2023-04-29T01:57:49.160Z,100701.75
2023-04-29T01:58:50.455Z,100706.35
2023-04-29T01:59:06.672Z,100711.51
2023-04-29T02:00:07.506Z,100717.20
2023-04-29T02:01:07.794Z,100723.04
2023-04-29T02:02:08.368Z,100728.66
2023-04-29T02:03:08.838Z,100734.88
2023-04-29T02:04:09.612Z,100741.17
2023-04-29T02:05:10.036Z,100747.56
2023-04-29T02:06:10.681Z,100753.61
2023-04-29T02:07:10.759Z,100760.00
2023-04-29T02:08:10.978Z,100765.70
2023-04-29T02:09:11.105Z,100770.99
2023-04-29T02:09:29.653Z,100776.33
2023-04-29T02:10:26.795Z,100781.70
2023-04-29T02:11:26.966Z,100786.53
2023-04-29T02:12:27.140Z,100791.86
2023-04-29T02:13:27.157Z,100797.33
2023-04-29T02:14:28.024Z,100802.23
2023-04-29T02:15:28.054Z,100806.89
2023-04-29T02:16:29.358Z,100811.72
2023-04-29T02:17:29.155Z,100816.20
2023-04-29T02:18:30.090Z,100820.48
2023-04-29T02:18:45.242Z,100824.80
2023-04-29T02:19:44.965Z,100828.44
2023-04-29T02:20:45.140Z,100832.21
2023-04-29T02:21:45.819Z,100835.68
2023-04-29T02:22:46.725Z,100838.98
2023-04-29T02:23:47.655Z,100842.45
2023-04-29T02:24:47.765Z,100845.84
2023-04-29T02:25:48.025Z,100849.10
2023-04-29T02:26:48.448Z,100852.23
2023-04-29T02:27:52.311Z,100854.77
2023-04-29T02:28:50.156Z,100857.91
2023-04-29T02:29:52.313Z,100860.91
2023-04-29T02:30:51.983Z,100863.70
2023-04-29T02:31:06.617Z,100867.43
2023-04-29T02:32:07.290Z,100870.65
2023-04-29T02:33:08.455Z,100873.62
2023-04-29T02:34:08.211Z,100876.96
2023-04-29T02:35:08.357Z,100879.51
2023-04-29T02:36:08.537Z,100882.22
2023-04-29T02:37:08.851Z,100884.59
2023-04-29T02:38:09.205Z,100887.13
2023-04-29T02:39:10.069Z,100889.72
2023-04-29T02:40:12.017Z,100892.70
2023-04-29T02:41:11.635Z,100894.98
2023-04-29T02:42:12.464Z,100897.73
2023-04-29T02:43:13.159Z,100900.38
2023-04-29T02:44:13.505Z,100903.64
2023-04-29T02:45:13.641Z,100906.36
2023-04-29T02:46:14.221Z,100909.20
2023-04-29T02:47:14.339Z,100911.84
2023-04-29T02:48:15.149Z,100913.92
2023-04-29T02:49:54.721Z,100918.55
2023-04-29T02:50:52.094Z,100920.81
2023-04-29T02:51:52.805Z,100922.80
2023-04-29T02:52:53.486Z,100925.15
2023-04-29T02:53:54.338Z,100927.61
2023-04-29T02:54:54.331Z,100929.73
2023-04-29T02:55:54.602Z,100931.56
2023-04-29T02:56:56.540Z,100933.73
2023-04-29T02:57:56.463Z,100935.81
2023-04-29T02:58:56.623Z,100937.38
2023-04-29T02:59:57.662Z,100939.13
2023-04-29T03:00:56.723Z,100941.23
2023-04-29T03:01:57.263Z,100943.31
2023-04-29T03:02:09.251Z,100926.49
2023-04-29T03:03:09.888Z,100929.30
2023-04-29T03:04:11.662Z,100932.37
2023-04-29T03:05:10.588Z,100934.92
2023-04-29T03:06:12.435Z,100938.35
2023-04-29T03:07:11.579Z,100941.19
2023-04-29T03:08:13.167Z,100943.56
2023-04-29T03:09:12.282Z,100946.02
2023-04-29T03:10:15.952Z,100948.77
2023-04-29T03:11:13.359Z,100950.77
2023-04-29T03:12:14.111Z,100953.56
2023-04-29T03:13:19.518Z,100956.70
2023-04-29T03:14:16.367Z,100959.02
2023-04-29T03:15:15.497Z,100961.60
2023-04-29T03:15:23.202Z,100948.95
2023-04-29T03:16:23.834Z,100952.63
2023-04-29T03:17:24.779Z,100955.85
2023-04-29T03:19:00.707Z,100962.79
2023-04-29T03:20:35.122Z,100970.58
2023-04-29T03:21:34.838Z,100973.74
2023-04-29T03:22:35.564Z,100977.81
2023-04-29T03:23:37.450Z,100981.37
2023-04-29T03:24:37.489Z,100985.64
2023-04-29T03:25:40.177Z,100989.63
2023-04-29T03:26:38.119Z,100993.81
2023-04-29T03:27:38.234Z,100997.88
2023-04-29T03:28:38.402Z,101001.64
2023-04-29T03:29:40.327Z,101005.08
2023-04-29T03:30:39.541Z,101007.95
2023-04-29T03:30:52.551Z,101011.20
2023-04-29T03:31:52.426Z,101013.84
2023-04-29T03:32:52.479Z,101017.19
2023-04-29T03:33:52.639Z,101019.77
2023-04-29T03:34:52.895Z,101022.19
2023-04-29T03:35:53.635Z,101024.69
2023-04-29T03:36:54.472Z,101026.72
2023-04-29T03:37:56.344Z,101028.70
2023-04-29T03:38:56.249Z,101031.20
2023-04-29T03:39:56.457Z,101033.20
2023-04-29T03:40:56.656Z,101034.88
2023-04-29T03:41:05.888Z,101020.35
2023-04-29T03:42:06.629Z,101022.73
2023-04-29T03:43:07.016Z,101025.30
2023-04-29T03:45:15.805Z,101029.91
2023-04-29T03:46:10.828Z,101032.20
2023-04-29T03:47:11.167Z,101033.98
2023-04-29T03:48:11.288Z,101036.52
2023-04-29T03:49:11.670Z,101038.88
2023-04-29T03:50:12.412Z,101040.75
2023-04-29T03:51:12.947Z,101042.61
2023-04-29T03:52:13.072Z,101044.20
2023-04-29T03:53:14.973Z,101045.31
2023-04-29T03:54:14.821Z,101047.42
2023-04-29T03:55:15.309Z,101048.86
2023-04-29T03:56:17.394Z,101050.84
2023-04-29T03:56:25.514Z,101052.62
2023-04-29T03:57:26.593Z,101054.48
2023-04-29T03:58:26.441Z,101056.42
2023-04-29T03:59:27.415Z,101058.51
2023-04-29T04:00:27.573Z,101061.13
2023-04-29T04:01:28.759Z,101062.91
2023-04-29T04:02:28.828Z,101065.22
2023-04-29T04:03:29.531Z,101067.34
2023-04-29T04:04:30.578Z,101069.45
2023-04-29T04:05:31.097Z,101071.27
2023-04-29T04:06:32.943Z,101073.05
2023-04-29T04:07:32.680Z,101075.00
2023-04-29T04:08:33.542Z,101076.52
2023-04-29T04:10:08.700Z,101079.14
2023-04-29T04:11:09.555Z,101080.41
2023-04-29T04:12:44.238Z,101084.38
2023-04-29T04:13:44.123Z,101086.50
2023-04-29T04:14:43.537Z,101088.28
2023-04-29T04:15:43.543Z,101090.98
2023-04-29T04:16:43.645Z,101092.97
2023-04-29T04:17:43.731Z,101095.25
2023-04-29T04:18:44.230Z,101097.53
2023-04-29T04:19:44.486Z,101099.73
2023-04-29T04:20:45.366Z,101102.31
2023-04-29T04:21:45.736Z,101104.86
2023-04-29T04:22:45.911Z,101107.27
2023-04-29T04:23:46.649Z,101108.95
2023-04-29T04:24:47.127Z,101110.86
2023-04-29T04:25:47.933Z,101112.97
2023-04-29T04:26:48.763Z,101115.25
2023-04-29T04:27:49.695Z,101116.61
2023-04-29T04:28:49.850Z,101119.06
2023-04-29T04:29:50.928Z,101120.80
2023-04-29T04:30:51.553Z,101122.41
2023-04-29T04:31:34.284Z,101094.89
2023-04-29T04:32:35.159Z,101099.30
2023-04-29T04:33:35.149Z,101103.11
2023-04-29T04:34:36.562Z,101106.53
2023-04-29T04:35:36.379Z,101109.36
2023-04-29T04:36:37.209Z,101112.53
2023-04-29T04:37:37.335Z,101115.53
2023-04-29T04:38:37.988Z,101118.00
2023-04-29T04:39:38.656Z,101120.66
2023-04-29T04:40:39.377Z,101123.91
2023-04-29T04:41:39.852Z,101126.62
2023-04-29T04:42:39.797Z,101129.12
2023-04-29T04:43:40.209Z,101131.58
2023-04-29T04:44:40.940Z,101134.75
2023-04-29T04:45:41.696Z,101137.45
2023-04-29T04:46:43.186Z,101139.95
2023-04-29T04:46:53.854Z,101142.83
2023-04-29T04:47:54.313Z,101145.78
2023-04-29T04:48:54.656Z,101148.32
2023-04-29T04:49:55.047Z,101149.84
2023-04-29T04:50:55.188Z,101152.21
2023-04-29T04:52:39.136Z,101156.14
2023-04-29T04:53:38.099Z,101158.05
2023-04-29T04:54:38.656Z,101160.34
2023-04-29T04:55:38.672Z,101162.44
2023-04-29T04:56:39.540Z,101164.90
2023-04-29T04:57:39.570Z,101166.88
2023-04-29T04:58:39.797Z,101168.61
2023-04-29T04:59:39.869Z,101170.48
2023-04-29T05:00:40.493Z,101172.20
2023-04-29T05:01:41.029Z,101173.56
2023-04-29T05:02:43.882Z,101175.20
2023-04-29T05:03:42.437Z,101176.47
2023-04-29T05:04:43.145Z,101178.16
2023-04-29T05:05:44.008Z,101179.44
2023-04-29T05:06:44.069Z,101180.79
2023-04-29T05:07:44.797Z,101181.64
2023-04-29T05:07:53.454Z,101164.86
2023-04-29T05:08:54.376Z,101167.28
2023-04-29T05:09:54.837Z,101168.29
2023-04-29T05:10:55.570Z,101169.69
2023-04-29T05:11:56.584Z,101171.55
2023-04-29T05:12:57.429Z,101173.03
2023-04-29T05:13:57.628Z,101174.72
2023-04-29T05:14:58.090Z,101177.22
2023-04-29T05:15:58.759Z,101178.70
2023-04-29T05:16:59.359Z,101180.89
2023-04-29T05:18:00.323Z,101182.97
2023-04-29T05:19:00.400Z,101184.03
2023-04-29T05:19:09.118Z,101171.23
2023-04-29T05:20:09.884Z,101173.78
2023-04-29T05:21:10.528Z,101176.31
2023-04-29T05:22:10.731Z,101178.65
2023-04-29T05:23:10.742Z,101181.06
2023-04-29T05:24:11.452Z,101183.67
2023-04-29T05:25:12.292Z,101186.94
2023-04-29T05:26:13.132Z,101189.09
2023-04-29T05:27:13.957Z,101191.69
2023-04-29T05:28:14.261Z,101194.34
2023-04-29T05:29:15.165Z,101196.28
2023-04-29T05:30:15.952Z,101198.78
2023-04-29T05:30:26.644Z,101201.45
2023-04-29T05:31:27.472Z,101203.19
2023-04-29T05:32:27.672Z,101204.80
2023-04-29T05:33:27.626Z,101207.13
2023-04-29T05:34:27.600Z,101208.81
2023-04-29T05:35:28.285Z,101210.98
2023-04-29T05:36:29.114Z,101211.95
2023-04-29T05:37:29.708Z,101213.72
2023-04-29T05:38:29.736Z,101215.45
2023-04-29T05:39:30.171Z,101216.30
2023-04-29T05:40:32.072Z,101217.86
2023-04-29T05:40:46.263Z,101205.17
2023-04-29T05:41:45.282Z,101207.21
2023-04-29T05:42:46.293Z,101209.02
2023-04-29T05:43:46.632Z,101210.55
2023-04-29T05:44:47.616Z,101212.06
2023-04-29T05:45:48.953Z,101213.33
2023-04-29T05:46:48.862Z,101215.11
2023-04-29T05:47:48.840Z,101216.17
2023-04-29T05:48:50.733Z,101216.84
2023-04-29T05:49:50.065Z,101217.66
2023-04-29T05:50:50.838Z,101219.05
2023-04-29T05:51:51.481Z,101219.98
2023-04-29T05:52:52.110Z,101220.45
2023-04-29T05:53:52.770Z,101221.34
2023-04-29T05:54:01.927Z,101222.10
2023-04-29T05:55:03.669Z,101223.12
2023-04-29T05:56:03.462Z,101224.44
2023-04-29T05:57:04.473Z,101225.19
2023-04-29T05:58:05.326Z,101225.70
2023-04-29T05:59:05.361Z,101226.72
2023-04-29T06:00:06.321Z,101228.16
2023-04-29T06:01:06.335Z,101229.59
2023-04-29T06:02:06.430Z,101230.94
2023-04-29T06:03:07.355Z,101231.70
2023-04-29T06:04:08.427Z,101233.31
2023-04-29T06:05:09.413Z,101234.20
2023-04-29T06:06:09.875Z,101235.12
2023-04-29T06:06:24.609Z,101219.06
2023-04-29T06:07:24.622Z,101220.94
2023-04-29T06:08:25.532Z,101222.08
2023-04-29T06:09:27.923Z,101223.48
2023-04-29T06:10:27.214Z,101225.22
2023-04-29T06:11:27.779Z,101226.66
2023-04-29T06:12:27.980Z,101228.25
2023-04-29T06:13:28.669Z,101229.33
2023-04-29T06:14:29.486Z,101230.89
2023-04-29T06:15:30.125Z,101231.82
2023-04-29T06:16:30.176Z,101232.41
2023-04-29T06:17:30.822Z,101233.17
2023-04-29T06:18:31.769Z,101233.22
2023-04-29T06:19:32.573Z,101233.38
2023-04-29T06:19:41.780Z,101217.41
2023-04-29T06:20:42.279Z,101218.61
2023-04-29T06:21:42.919Z,101219.70
2023-04-29T06:22:43.074Z,101220.52
2023-04-29T06:23:43.869Z,101221.75
2023-04-29T06:24:44.845Z,101222.76
2023-04-29T06:25:45.290Z,101223.31
2023-04-29T06:26:46.308Z,101225.05
2023-04-29T06:27:46.419Z,101225.81
2023-04-29T06:28:47.521Z,101226.91
2023-04-29T06:29:47.409Z,101227.75
2023-04-29T06:30:48.368Z,101228.39
2023-04-29T06:31:49.148Z,101229.03
2023-04-29T06:32:49.992Z,101229.87
2023-04-29T06:33:50.690Z,101230.97
2023-04-29T06:34:00.224Z,101217.46
2023-04-29T06:34:59.843Z,101219.87
2023-04-29T06:35:59.862Z,101221.05
2023-04-29T06:37:00.841Z,101222.54
2023-04-29T06:38:01.574Z,101223.55
2023-04-29T06:39:02.333Z,101224.95
2023-04-29T06:40:02.644Z,101225.88
2023-04-29T06:41:03.339Z,101226.94
2023-04-29T06:42:04.304Z,101227.53
2023-04-29T06:43:04.945Z,101228.09
2023-04-29T06:44:05.591Z,101228.04
2023-04-29T06:45:06.526Z,101228.20
2023-04-29T06:45:15.217Z,101216.30
2023-04-29T06:46:15.782Z,101216.64
2023-04-29T06:47:15.998Z,101217.02
2023-04-29T06:48:17.786Z,101216.99
2023-04-29T06:49:17.316Z,101217.41
2023-04-29T06:50:18.203Z,101218.13
2023-04-29T06:51:19.018Z,101218.94
2023-04-29T06:52:19.665Z,101219.58
2023-04-29T06:53:20.459Z,101220.08
2023-04-29T06:54:21.474Z,101220.13
2023-04-29T06:55:22.151Z,101221.19
2023-04-29T06:56:22.722Z,101221.78
2023-04-29T06:57:23.393Z,101222.24
2023-04-29T06:57:33.859Z,101207.59
2023-04-29T06:58:34.675Z,101208.52
2023-04-29T06:59:35.294Z,101209.66
2023-04-29T07:00:36.071Z,101210.17
2023-04-29T07:01:36.299Z,101211.09
2023-04-29T07:02:36.345Z,101211.34
2023-04-29T07:03:37.073Z,101211.86
2023-04-29T07:04:37.805Z,101212.50
2023-04-29T07:05:38.423Z,101212.83
2023-04-29T07:06:39.171Z,101212.83
2023-04-29T07:07:39.864Z,101212.83
2023-04-29T07:08:40.519Z,101212.49
2023-04-29T07:09:41.341Z,101212.67
2023-04-29T07:09:50.601Z,101196.81
2023-04-29T07:10:50.976Z,101197.40
2023-04-29T07:11:51.671Z,101197.96
2023-04-29T07:12:52.393Z,101198.38
2023-04-29T07:13:53.112Z,101198.89
2023-04-29T07:14:53.937Z,101199.23
2023-04-29T07:15:54.445Z,101199.48
2023-04-29T07:16:55.157Z,101199.81
2023-04-29T07:17:55.977Z,101199.69
2023-04-29T07:18:56.837Z,101199.52
2023-04-29T07:19:57.520Z,101199.52
2023-04-29T07:20:59.222Z,101199.65
2023-04-29T07:21:58.954Z,101199.64
2023-04-29T07:22:07.710Z,101186.60
2023-04-29T07:23:07.712Z,101187.78
2023-04-29T07:24:08.397Z,101188.76
2023-04-29T07:25:09.524Z,101189.73
2023-04-29T07:26:09.384Z,101191.00
2023-04-29T07:27:10.110Z,101192.36
2023-04-29T07:28:10.854Z,101193.50
2023-04-29T07:29:11.608Z,101194.44
2023-04-29T07:30:12.248Z,101195.19
2023-04-29T07:31:12.584Z,101196.67
2023-04-29T07:32:13.235Z,101198.11
2023-04-29T07:33:13.947Z,101199.04
2023-04-29T07:34:14.617Z,101200.14
2023-04-29T07:34:23.323Z,101185.43
2023-04-29T07:35:23.956Z,101187.45
2023-04-29T07:36:24.556Z,101189.87
2023-04-29T07:37:25.476Z,101192.11
2023-04-29T07:38:26.178Z,101194.11
2023-04-29T07:39:26.631Z,101195.45
2023-04-29T07:40:27.294Z,101196.94
2023-04-29T07:41:27.443Z,101198.25
2023-04-29T07:42:28.254Z,101199.95
2023-04-29T07:43:29.037Z,101201.18
2023-04-29T07:44:29.694Z,101202.63
2023-04-29T07:45:30.398Z,101204.53
2023-04-29T07:46:31.141Z,101206.69
2023-04-29T07:47:32.059Z,101208.34
2023-04-29T07:47:40.769Z,101193.86
2023-04-29T07:48:41.478Z,101196.32
2023-04-29T07:49:42.202Z,101198.27
2023-04-29T07:50:43.239Z,101201.02
2023-04-29T07:51:43.932Z,101203.14
2023-04-29T07:52:44.643Z,101204.84
2023-04-29T07:53:45.307Z,101207.84
2023-04-29T07:54:46.196Z,101209.87
2023-04-29T07:55:46.945Z,101212.00
2023-04-29T07:56:47.739Z,101213.56
2023-04-29T07:57:48.484Z,101215.30
2023-04-29T07:58:49.466Z,101216.91
2023-04-29T07:59:50.173Z,101218.73
2023-04-29T08:00:03.321Z,101207.77
2023-04-29T08:01:04.125Z,101210.06
2023-04-29T08:02:04.308Z,101212.44
2023-04-29T08:03:05.374Z,101215.35
2023-04-29T08:04:06.121Z,101218.22
2023-04-29T08:05:07.145Z,101221.77
2023-04-29T08:06:07.471Z,101224.48
2023-04-29T08:07:07.491Z,101227.52
2023-04-29T08:08:08.069Z,101230.39
2023-04-29T08:09:08.238Z,101233.06
2023-04-29T08:10:08.937Z,101235.73
2023-04-29T08:11:09.675Z,101238.27
2023-04-29T08:12:10.395Z,101240.68
2023-04-29T08:13:11.172Z,101242.92
2023-04-29T08:14:11.936Z,101244.58
2023-04-29T08:14:21.674Z,101234.75
2023-04-29T08:15:21.297Z,101237.84
2023-04-29T08:16:21.383Z,101240.94
2023-04-29T08:17:22.360Z,101244.16
2023-04-29T08:18:22.695Z,101247.29
2023-04-29T08:19:23.596Z,101250.73
2023-04-29T08:20:24.226Z,101253.61
2023-04-29T08:21:24.962Z,101257.34
2023-04-29T08:22:25.665Z,101260.85
2023-04-29T08:23:26.350Z,101264.82
2023-04-29T08:24:27.235Z,101268.50
2023-04-29T08:25:28.083Z,101271.42
2023-04-29T08:25:36.732Z,101263.12
2023-04-29T08:26:37.684Z,101266.77
2023-04-29T08:27:38.336Z,101269.47
2023-04-29T08:28:38.559Z,101272.83
2023-04-29T08:29:39.221Z,101276.39
2023-04-29T08:30:40.056Z,101279.56
2023-04-29T08:31:40.969Z,101282.25
2023-04-29T08:32:41.867Z,101285.34
2023-04-29T08:33:42.333Z,101288.09
2023-04-29T08:34:42.972Z,101291.61
2023-04-29T08:35:43.434Z,101294.75
2023-04-29T08:36:44.191Z,101298.14
2023-04-29T08:36:53.811Z,101288.84
2023-04-29T08:37:55.749Z,101292.66
2023-04-29T08:38:55.153Z,101297.27
2023-04-29T08:39:55.805Z,101302.27
2023-04-29T08:40:55.962Z,101306.00
2023-04-29T08:41:56.349Z,101310.23
2023-04-29T08:42:56.961Z,101313.59
2023-04-29T08:43:56.858Z,101317.20
2023-04-29T08:44:57.476Z,101321.05
2023-04-29T08:45:58.328Z,101324.55
2023-04-29T08:46:58.717Z,101328.14
2023-04-29T08:47:59.446Z,101331.92
2023-04-29T08:48:59.962Z,101335.65
2023-04-29T08:49:40.926Z,101325.14
2023-04-29T08:50:40.963Z,101329.97
2023-04-29T08:51:42.438Z,101334.88
2023-04-29T08:52:42.142Z,101339.66
2023-04-29T08:53:43.925Z,101343.91
2023-04-29T08:54:42.932Z,101348.31
2023-04-29T08:55:43.755Z,101352.52
2023-04-29T08:56:44.306Z,101356.41
2023-04-29T08:57:46.087Z,101360.09
2023-04-29T08:58:45.608Z,101363.95
2023-04-29T08:59:45.705Z,101367.17
2023-04-29T09:00:46.178Z,101370.73
2023-04-29T09:01:46.876Z,101373.74
2023-04-29T09:02:47.729Z,101376.72
2023-04-29T09:03:47.942Z,101379.71
2023-04-29T09:03:58.542Z,101371.54
2023-04-29T09:04:59.159Z,101375.27
2023-04-29T09:05:59.328Z,101379.54
2023-04-29T09:07:00.337Z,101383.95
2023-04-29T09:08:00.765Z,101388.48
2023-04-29T09:09:00.915Z,101393.14
2023-04-29T09:10:01.686Z,101397.51
2023-04-29T09:11:02.354Z,101401.66
2023-04-29T09:12:03.300Z,101405.60
2023-04-29T09:13:04.138Z,101409.54
2023-04-29T09:14:04.865Z,101412.89
2023-04-29T09:15:05.213Z,101415.81
2023-04-29T09:16:06.046Z,101418.98
2023-04-29T09:17:06.062Z,101422.46
2023-04-29T09:17:15.554Z,101415.60
2023-04-29T09:18:16.318Z,101419.24
2023-04-29T09:19:16.651Z,101422.97
2023-04-29T09:20:17.306Z,101426.64
2023-04-29T09:21:20.305Z,101430.37
2023-04-29T09:22:18.699Z,101434.23
2023-04-29T09:23:19.419Z,101437.78
2023-04-29T09:24:20.070Z,101441.00
2023-04-29T09:25:20.734Z,101444.55
2023-04-29T09:26:21.236Z,101447.85
2023-04-29T09:27:22.388Z,101451.19
2023-04-29T09:28:22.060Z,101454.39
2023-04-29T09:29:22.743Z,101457.78
2023-04-29T09:30:23.391Z,101460.32
2023-04-29T09:30:33.043Z,101455.89
2023-04-29T09:31:33.640Z,101459.70
2023-04-29T09:32:33.989Z,101462.58
2023-04-29T09:33:34.592Z,101465.54
2023-04-29T09:34:35.076Z,101468.42
2023-04-29T09:35:36.076Z,101470.99
2023-04-29T09:36:36.485Z,101473.45
2023-04-29T09:37:37.424Z,101474.89
2023-04-29T09:38:37.652Z,101477.42
2023-04-29T09:39:38.058Z,101479.80
2023-04-29T09:40:56.852Z,101481.83
2023-04-29T09:41:39.303Z,101483.44
2023-04-29T09:41:50.165Z,101476.75
2023-04-29T09:42:51.016Z,101479.17
2023-04-29T09:43:51.723Z,101480.66
2023-04-29T09:44:52.707Z,101483.12
2023-04-29T09:45:53.272Z,101485.08
2023-04-29T09:46:53.288Z,101486.98
2023-04-29T09:47:54.714Z,101488.27
2023-04-29T09:48:54.768Z,101490.23
2023-04-29T09:49:54.062Z,101492.13
2023-04-29T09:50:54.114Z,101493.66
2023-04-29T09:51:54.550Z,101495.74
2023-04-29T09:52:55.399Z,101497.53
2023-04-29T09:53:55.418Z,101498.95
2023-04-29T09:54:55.882Z,101500.65
2023-04-29T09:55:55.842Z,101502.52
2023-04-29T09:56:56.695Z,101503.97
2023-04-29T09:57:58.085Z,101506.06
2023-04-29T09:58:57.671Z,101508.06
2023-04-29T09:59:08.868Z,101501.19
2023-04-29T10:00:09.136Z,101503.92
2023-04-29T10:01:10.003Z,101506.56
2023-04-29T10:02:10.873Z,101509.03
2023-04-29T10:03:11.651Z,101511.37
2023-04-29T10:04:11.887Z,101513.72
2023-04-29T10:05:12.205Z,101515.72
2023-04-29T10:06:13.136Z,101518.74
2023-04-29T10:07:13.952Z,101522.14
2023-04-29T10:08:14.945Z,101525.03
2023-04-29T10:09:15.775Z,101527.91
2023-04-29T10:10:16.558Z,101530.64
2023-04-29T10:11:17.183Z,101533.75
2023-04-29T10:11:27.951Z,101527.38
2023-04-29T10:12:28.704Z,101530.48
2023-04-29T10:13:28.858Z,101533.51
2023-04-29T10:14:29.670Z,101537.08
2023-04-29T10:15:30.548Z,101540.16
2023-04-29T10:16:30.900Z,101543.66
2023-04-29T10:17:31.705Z,101547.33
2023-04-29T10:18:32.440Z,101550.17
2023-04-29T10:19:32.291Z,101553.10
2023-04-29T10:20:33.116Z,101556.20
2023-04-29T10:21:33.958Z,101558.36
2023-04-29T10:21:50.733Z,101545.23
2023-04-29T10:22:50.911Z,101547.78
2023-04-29T10:23:51.076Z,101551.14
2023-04-29T10:24:51.928Z,101553.80
2023-04-29T10:25:52.338Z,101556.17
2023-04-29T10:26:52.781Z,101558.52
2023-04-29T10:27:53.312Z,101560.72
2023-04-29T10:28:54.431Z,101562.83
2023-04-29T10:29:54.445Z,101564.16
2023-04-29T10:30:57.589Z,101565.50
2023-04-29T10:31:56.756Z,101567.38
2023-04-29T10:32:56.658Z,101568.94
2023-04-29T10:33:07.746Z,101571.00
2023-04-29T10:34:09.099Z,101572.11
2023-04-29T10:35:08.599Z,101572.90
2023-04-29T10:36:09.505Z,101573.92
2023-04-29T10:37:09.635Z,101574.86
2023-04-29T10:38:11.012Z,101575.95
2023-04-29T10:39:11.856Z,101577.00
2023-04-29T10:40:15.770Z,101577.69
2023-04-29T10:41:11.155Z,101578.79
2023-04-29T10:42:11.125Z,101579.92
2023-04-29T10:43:12.140Z,101581.20
2023-04-29T10:43:40.125Z,101569.20
2023-04-29T10:44:39.621Z,101570.90
2023-04-29T10:45:40.445Z,101573.09
2023-04-29T10:46:40.576Z,101574.76
2023-04-29T10:47:41.409Z,101576.53
2023-04-29T10:48:42.228Z,101577.97
2023-04-29T10:49:42.237Z,101579.67
2023-04-29T10:50:43.237Z,101581.53
2023-04-29T10:51:43.482Z,101582.63
2023-04-29T10:52:44.457Z,101583.94
2023-04-29T10:53:45.358Z,101585.05
2023-04-29T10:54:45.788Z,101585.55
2023-04-29T10:55:46.016Z,101586.23
2023-04-29T10:56:46.879Z,101586.01